Time;durP1;ratioP1;P1;durP2;ratioP2;P2;SDS_P1;SDS_P2;PMS_P1;PMS_P2;Temp;Humidity;BMP_temperature;BMP_pressure;BME280_temperature;BME280_humidity;BME280_pressure;Samples;Min_cycle;Max_cycle;Signal;HPM_P1;HPM_P2
2022/06/27 00:00:48;;;;;;;3.10;2.22;;;20.10;99.90;;;;;;2068819;28;20026;-69
2022/06/27 00:01:49;;;;;;;2.70;2.50;;;20.10;99.90;;;;;;2068915;28;20030;-69
2022/06/27 00:02:49;;;;;;;2.60;2.30;;;20.10;99.90;;;;;;2078983;28;20030;-69
2022/06/27 00:03:50;;;;;;;2.38;2.00;;;20.10;99.90;;;;;;2076984;28;20022;-69
2022/06/27 00:04:51;;;;;;;2.15;2.05;;;20.10;99.90;;;;;;2077844;28;20037;-69
2022/06/27 00:05:52;;;;;;;3.95;2.42;;;20.10;99.90;;;;;;2076903;28;20072;-69
2022/06/27 00:06:53;;;;;;;3.17;2.33;;;20.10;99.90;;;;;;2078568;28;20025;-69
2022/06/27 00:07:53;;;;;;;2.33;2.20;;;20.10;99.90;;;;;;2078667;28;20028;-69
2022/06/27 00:08:54;;;;;;;3.22;2.72;;;20.10;99.90;;;;;;2079185;28;20068;-69
2022/06/27 00:09:55;;;;;;;3.60;2.50;;;20.10;99.90;;;;;;2076994;28;20475;-69
2022/06/27 00:10:56;;;;;;;3.78;2.42;;;20.10;99.90;;;;;;2075964;28;20037;-69
2022/06/27 00:11:58;;;;;;;3.08;2.30;;;20.10;99.90;;;;;;2077309;28;20105;-70
2022/06/27 00:12:58;;;;;;;3.70;2.20;;;20.10;99.90;;;;;;2077047;28;20018;-70
2022/06/27 00:13:59;;;;;;;2.42;2.22;;;20.10;99.90;;;;;;2077283;28;20483;-69
2022/06/27 00:15:00;;;;;;;2.75;2.55;;;20.10;99.90;;;;;;2077432;28;20109;-69
2022/06/27 00:16:01;;;;;;;3.28;2.97;;;20.10;99.90;;;;;;2075434;28;20022;-69
2022/06/27 00:17:02;;;;;;;3.22;2.78;;;20.10;99.90;;;;;;2076147;28;20045;-69
2022/06/27 00:18:03;;;;;;;3.20;2.78;;;20.20;99.90;;;;;;2077909;28;20101;-69
2022/06/27 00:19:04;;;;;;;3.40;2.83;;;20.10;99.90;;;;;;2077281;28;20116;-69
2022/06/27 00:20:05;;;;;;;2.97;2.67;;;20.10;99.90;;;;;;2078346;28;20061;-69
2022/06/27 00:21:06;;;;;;;2.33;2.13;;;20.10;99.90;;;;;;2077147;28;20032;-69
2022/06/27 00:22:07;;;;;;;2.60;2.15;;;20.10;99.90;;;;;;2078803;28;20097;-69
2022/06/27 00:23:08;;;;;;;2.55;2.35;;;20.10;99.90;;;;;;2077326;28;20029;-69
2022/06/27 00:24:08;;;;;;;3.15;2.60;;;20.10;99.90;;;;;;2078787;28;20036;-69
2022/06/27 00:25:10;;;;;;;2.45;2.25;;;20.10;99.90;;;;;;2077749;28;20705;-69
2022/06/27 00:26:11;;;;;;;3.63;2.88;;;20.10;99.90;;;;;;2076642;28;20036;-69
2022/06/27 00:27:12;;;;;;;4.03;2.65;;;20.10;99.90;;;;;;2079516;28;20566;-69
2022/06/27 00:28:12;;;;;;;3.17;2.60;;;20.10;99.90;;;;;;2074804;28;20041;-69
2022/06/27 00:29:13;;;;;;;3.70;2.53;;;20.10;99.90;;;;;;2076146;28;20108;-69
2022/06/27 00:30:14;;;;;;;3.88;2.47;;;20.10;99.90;;;;;;2075909;28;20044;-69
2022/06/27 00:31:14;;;;;;;2.67;2.38;;;20.10;99.90;;;;;;2078177;28;20030;-70
2022/06/27 00:32:16;;;;;;;3.28;2.58;;;20.10;99.90;;;;;;2077368;28;20038;-70
2022/06/27 00:33:16;;;;;;;2.28;2.05;;;20.10;99.90;;;;;;2076773;28;20030;-69
2022/06/27 00:34:17;;;;;;;2.78;2.58;;;20.10;99.90;;;;;;2076921;28;20022;-69
2022/06/27 00:35:18;;;;;;;3.03;2.58;;;20.10;99.90;;;;;;2077473;28;20025;-69
2022/06/27 00:36:19;;;;;;;3.13;2.80;;;20.10;99.90;;;;;;2078293;28;20464;-69
2022/06/27 00:37:20;;;;;;;3.47;2.60;;;20.10;99.90;;;;;;2077506;28;21526;-69
2022/06/27 00:38:20;;;;;;;2.92;2.70;;;20.10;99.90;;;;;;2079239;28;20502;-69
2022/06/27 00:39:21;;;;;;;4.65;3.35;;;20.10;99.90;;;;;;2073982;28;20030;-69
2022/06/27 00:40:22;;;;;;;5.15;3.00;;;20.10;99.90;;;;;;2079710;28;20030;-69
2022/06/27 00:41:23;;;;;;;2.83;2.63;;;20.10;99.90;;;;;;2075773;28;20095;-69
2022/06/27 00:42:24;;;;;;;3.22;2.90;;;20.10;99.90;;;;;;2074178;28;20104;-69
2022/06/27 00:43:24;;;;;;;3.47;3.17;;;20.10;99.90;;;;;;2075868;28;20033;-69
2022/06/27 00:44:36;;;;;;;3.28;2.97;;;20.10;99.90;;;;;;2078695;28;20529;-69
2022/06/27 00:45:37;;;;;;;3.00;2.80;;;20.10;99.90;;;;;;2074655;28;20057;-69
2022/06/27 00:46:38;;;;;;;3.47;2.70;;;20.00;99.90;;;;;;2075063;28;20048;-69
2022/06/27 00:47:38;;;;;;;3.35;2.40;;;20.10;99.90;;;;;;2076577;28;20366;-69
2022/06/27 00:48:39;;;;;;;2.67;2.42;;;20.10;99.90;;;;;;2077860;28;20025;-69
2022/06/27 00:49:41;;;;;;;3.05;2.70;;;20.10;99.90;;;;;;2076499;28;20026;-69
2022/06/27 00:50:41;;;;;;;4.63;2.88;;;20.10;99.90;;;;;;2076101;28;20021;-69
2022/06/27 00:51:42;;;;;;;3.35;2.63;;;20.10;99.90;;;;;;2076097;28;20032;-69
2022/06/27 00:52:43;;;;;;;2.80;2.60;;;20.10;99.90;;;;;;2078281;28;20084;-69
2022/06/27 00:53:43;;;;;;;3.20;2.90;;;20.10;99.90;;;;;;2079670;28;20021;-69
2022/06/27 00:54:46;;;;;;;3.97;3.17;;;20.10;99.90;;;;;;2080061;28;20037;-70
2022/06/27 00:55:47;;;;;;;3.08;2.88;;;20.10;99.90;;;;;;2076564;28;20547;-69
2022/06/27 00:56:49;;;;;;;4.35;3.10;;;20.10;99.90;;;;;;2078606;28;20392;-69
2022/06/27 00:57:50;;;;;;;3.38;3.08;;;20.10;99.90;;;;;;2075459;28;20058;-69
2022/06/27 00:58:51;;;;;;;2.80;2.60;;;20.00;99.90;;;;;;2077163;28;20030;-69
2022/06/27 00:59:51;;;;;;;3.17;2.88;;;20.00;99.90;;;;;;2078312;28;20029;-69
2022/06/27 01:00:52;;;;;;;3.33;2.90;;;20.00;99.90;;;;;;2076599;28;20109;-69
2022/06/27 01:01:53;;;;;;;3.78;3.15;;;20.00;99.90;;;;;;2075286;28;20022;-69
2022/06/27 01:02:53;;;;;;;4.30;2.97;;;20.00;99.90;;;;;;2078139;28;20025;-69
2022/06/27 01:03:55;;;;;;;4.35;3.70;;;20.00;99.90;;;;;;2076619;28;20469;-69
2022/06/27 01:04:55;;;;;;;3.55;3.20;;;20.00;99.90;;;;;;2076663;28;20477;-69
2022/06/27 01:05:56;;;;;;;4.32;3.40;;;20.00;99.90;;;;;;2076741;28;20418;-69
2022/06/27 01:06:57;;;;;;;5.30;3.30;;;20.00;99.90;;;;;;2077396;28;20478;-70
2022/06/27 01:07:58;;;;;;;3.67;3.38;;;20.00;99.90;;;;;;2076755;28;20022;-69
2022/06/27 01:08:59;;;;;;;3.60;2.90;;;20.00;99.90;;;;;;2077296;28;20053;-69
2022/06/27 01:10:01;;;;;;;4.07;3.17;;;20.00;99.90;;;;;;2076479;28;20424;-69
2022/06/27 01:11:02;;;;;;;3.65;3.22;;;20.00;99.90;;;;;;2080077;28;20030;-69
2022/06/27 01:12:03;;;;;;;4.25;3.35;;;20.00;99.90;;;;;;2076182;28;20017;-69
2022/06/27 01:13:04;;;;;;;4.95;3.47;;;20.00;99.90;;;;;;2075593;28;20029;-69
2022/06/27 01:14:05;;;;;;;4.57;3.67;;;20.00;99.90;;;;;;2079267;28;20025;-69
2022/06/27 01:15:07;;;;;;;4.05;3.40;;;20.00;99.90;;;;;;2077633;28;20079;-69
2022/06/27 01:16:08;;;;;;;3.83;3.53;;;20.00;99.90;;;;;;2076546;28;20025;-69
2022/06/27 01:17:11;;;;;;;3.25;2.75;;;20.00;99.90;;;;;;2077777;28;20021;-69
2022/06/27 01:18:12;;;;;;;3.15;2.90;;;20.00;99.90;;;;;;2077195;28;20646;-69
2022/06/27 01:19:15;;;;;;;3.88;3.35;;;19.90;99.90;;;;;;2077888;28;20039;-69
2022/06/27 01:20:16;;;;;;;5.10;3.33;;;19.90;99.90;;;;;;2077760;28;20025;-69
2022/06/27 01:21:24;;;;;;;3.90;3.60;;;19.90;99.90;;;;;;2076897;28;20076;-69
2022/06/27 01:22:25;;;;;;;4.05;3.65;;;19.90;99.90;;;;;;2079279;28;20040;-69
2022/06/27 01:23:26;;;;;;;5.22;3.88;;;19.90;99.90;;;;;;2077480;28;20442;-69
2022/06/27 01:24:27;;;;;;;4.63;4.03;;;19.90;99.90;;;;;;2077409;28;20095;-69
2022/06/27 01:25:28;;;;;;;4.97;4.13;;;19.90;99.90;;;;;;2075671;28;20030;-69
2022/06/27 01:26:28;;;;;;;5.28;3.88;;;19.90;99.90;;;;;;2078239;28;20021;-69
2022/06/27 01:27:29;;;;;;;3.50;3.10;;;19.90;99.90;;;;;;2078928;28;20083;-69
2022/06/27 01:28:30;;;;;;;3.95;3.22;;;19.90;99.90;;;;;;2078548;28;20029;-69
2022/06/27 01:29:30;;;;;;;3.28;2.97;;;19.90;99.90;;;;;;2078325;28;20112;-69
2022/06/27 01:30:32;;;;;;;4.05;3.67;;;19.90;99.90;;;;;;2076412;28;20098;-69
2022/06/27 01:31:35;;;;;;;3.72;3.42;;;19.80;99.90;;;;;;2079401;28;20382;-69
2022/06/27 01:32:37;;;;;;;4.28;3.67;;;19.90;99.90;;;;;;2078515;28;20041;-69
2022/06/27 01:33:37;;;;;;;5.03;3.80;;;19.90;99.90;;;;;;2078118;28;20025;-69
2022/06/27 01:34:38;;;;;;;3.35;3.05;;;19.80;99.90;;;;;;2075829;28;20026;-69
2022/06/27 01:35:39;;;;;;;3.67;3.13;;;19.80;99.90;;;;;;2074738;28;20485;-69
2022/06/27 01:36:42;;;;;;;4.45;3.53;;;19.80;99.90;;;;;;2077239;28;20045;-69
2022/06/27 01:37:43;;;;;;;3.55;3.25;;;19.80;99.90;;;;;;2078618;28;20041;-69
2022/06/27 01:38:44;;;;;;;3.88;3.45;;;19.80;99.90;;;;;;2078438;28;20026;-69
2022/06/27 01:39:44;;;;;;;5.18;3.85;;;19.80;99.90;;;;;;2078639;28;20056;-69
2022/06/27 01:40:45;;;;;;;3.70;3.50;;;19.80;99.90;;;;;;2076866;28;20032;-69
2022/06/27 01:41:58;;;;;;;4.07;3.75;;;19.80;99.90;;;;;;2078283;28;20029;-69
2022/06/27 01:42:58;;;;;;;3.55;3.25;;;19.80;99.90;;;;;;2076662;28;20029;-69
2022/06/27 01:43:59;;;;;;;3.95;3.42;;;19.80;99.90;;;;;;2075617;28;20056;-69
2022/06/27 01:45:00;;;;;;;4.60;3.80;;;19.80;99.90;;;;;;2076856;28;20022;-69
2022/06/27 01:46:01;;;;;;;4.28;3.70;;;19.80;99.90;;;;;;2077140;28;20504;-69
2022/06/27 01:47:05;;;;;;;3.38;3.08;;;19.80;99.90;;;;;;2072464;28;20030;-69
2022/06/27 01:48:06;;;;;;;3.45;3.22;;;19.80;99.90;;;;;;2077672;28;20021;-69
2022/06/27 01:49:06;;;;;;;3.55;3.33;;;19.80;99.90;;;;;;2075396;28;20108;-69
2022/06/27 01:50:09;;;;;;;3.22;3.03;;;19.80;99.90;;;;;;2077347;28;20025;-69
2022/06/27 01:51:10;;;;;;;4.10;3.38;;;19.80;99.90;;;;;;2078550;28;20477;-69
2022/06/27 01:52:15;;;;;;;5.20;3.90;;;19.80;99.90;;;;;;2075046;28;20112;-69
2022/06/27 01:53:17;;;;;;;2.85;2.63;;;19.80;99.90;;;;;;2076459;28;20030;-69
2022/06/27 01:54:22;;;;;;;3.92;3.63;;;19.80;99.90;;;;;;2075789;28;20034;-69
2022/06/27 01:55:24;;;;;;;3.50;3.20;;;19.80;99.90;;;;;;2075840;28;20504;-69
2022/06/27 01:56:25;;;;;;;3.53;3.17;;;19.80;99.90;;;;;;2075494;28;20060;-69
2022/06/27 01:57:26;;;;;;;3.58;3.28;;;19.80;99.90;;;;;;2078219;28;20074;-69
2022/06/27 01:58:26;;;;;;;3.50;3.03;;;19.80;99.90;;;;;;2076062;28;20109;-69
2022/06/27 01:59:30;;;;;;;4.70;4.03;;;19.80;99.90;;;;;;2074708;28;20421;-69
2022/06/27 02:00:30;;;;;;;4.78;3.70;;;19.80;99.90;;;;;;2079002;28;20021;-69
2022/06/27 02:01:31;;;;;;;6.15;3.42;;;19.80;99.90;;;;;;2076325;28;20609;-69
2022/06/27 02:02:33;;;;;;;4.00;3.70;;;19.80;99.90;;;;;;2077003;28;20029;-69
2022/06/27 02:03:33;;;;;;;4.60;4.10;;;19.80;99.90;;;;;;2075086;28;20389;-69
2022/06/27 02:04:36;;;;;;;8.13;4.72;;;19.80;99.90;;;;;;2075460;28;20034;-69
2022/06/27 02:05:37;;;;;;;4.40;4.03;;;19.80;99.90;;;;;;2076078;28;20385;-69
2022/06/27 02:06:39;;;;;;;3.88;3.45;;;19.80;99.90;;;;;;2076035;28;20022;-69
2022/06/27 02:07:42;;;;;;;5.28;4.18;;;19.80;99.90;;;;;;2075047;28;20030;-69
2022/06/27 02:08:48;;;;;;;3.70;3.40;;;19.80;99.90;;;;;;2075458;28;20037;-69
2022/06/27 02:09:49;;;;;;;3.85;3.22;;;19.80;99.90;;;;;;2076585;28;20026;-69
2022/06/27 02:10:49;;;;;;;6.10;3.17;;;19.80;99.90;;;;;;2077359;28;20087;-69
2022/06/27 02:11:51;;;;;;;4.85;3.70;;;19.80;99.90;;;;;;2075660;28;20014;-69
2022/06/27 02:12:53;;;;;;;4.72;4.22;;;19.80;99.90;;;;;;2075639;28;20068;-69
2022/06/27 02:13:55;;;;;;;4.35;3.95;;;19.80;99.90;;;;;;2074729;28;20080;-69
2022/06/27 02:14:56;;;;;;;3.95;3.55;;;19.80;99.90;;;;;;2073763;28;20017;-69
2022/06/27 02:16:09;;;;;;;3.72;3.42;;;19.80;99.90;;;;;;2077836;28;20105;-69
2022/06/27 02:17:10;;;;;;;3.97;3.55;;;19.80;99.90;;;;;;2076977;28;20028;-69
2022/06/27 02:18:11;;;;;;;3.97;3.67;;;19.80;99.90;;;;;;2083391;28;20164;-69
2022/06/27 02:19:14;;;;;;;4.05;3.65;;;19.80;99.90;;;;;;2082630;28;20104;-69
2022/06/27 02:20:15;;;;;;;4.05;3.28;;;19.80;99.90;;;;;;2075713;28;20108;-69
2022/06/27 02:21:22;;;;;;;4.10;3.53;;;19.80;99.90;;;;;;2079680;28;20033;-69
2022/06/27 02:22:23;;;;;;;4.25;3.80;;;19.80;99.90;;;;;;2077884;28;20083;-69
2022/06/27 02:23:23;;;;;;;4.43;3.97;;;19.80;99.90;;;;;;2078635;28;20111;-69
2022/06/27 02:24:24;;;;;;;5.32;4.82;;;19.80;99.90;;;;;;2078232;28;20038;-69
2022/06/27 02:25:24;;;;;;;5.40;4.90;;;19.80;99.90;;;;;;2076020;28;20495;-69
2022/06/27 02:26:29;;;;;;;6.18;5.22;;;19.80;99.90;;;;;;2077275;28;20029;-69
2022/06/27 02:27:31;;;;;;;7.07;5.45;;;19.80;99.90;;;;;;2077718;28;20032;-69
2022/06/27 02:28:32;;;;;;;7.35;4.70;;;19.80;99.90;;;;;;2074707;28;20022;-69
2022/06/27 02:29:33;;;;;;;5.35;4.75;;;19.80;99.90;;;;;;2075016;28;20025;-69
2022/06/27 02:30:34;;;;;;;5.53;5.00;;;19.80;99.90;;;;;;2076453;28;20030;-69
2022/06/27 02:31:44;;;;;;;5.95;5.20;;;19.80;99.90;;;;;;2078154;28;20470;-69
2022/06/27 02:32:45;;;;;;;9.75;5.18;;;19.80;99.90;;;;;;2077563;28;20033;-69
2022/06/27 02:33:47;;;;;;;6.57;6.00;;;19.80;99.90;;;;;;2075216;28;20026;-69
2022/06/27 02:34:50;;;;;;;6.47;5.65;;;19.70;99.90;;;;;;2075681;28;20724;-70
2022/06/27 02:35:52;;;;;;;8.27;5.90;;;19.80;99.90;;;;;;2076768;28;20022;-69
2022/06/27 02:36:56;;;;;;;6.55;5.63;;;19.70;99.90;;;;;;2075544;28;20677;-69
2022/06/27 02:37:58;;;;;;;8.00;5.65;;;19.70;99.90;;;;;;2074640;28;20147;-69
2022/06/27 02:39:00;;;;;;;7.00;5.90;;;19.70;99.90;;;;;;2076705;28;20021;-69
2022/06/27 02:40:01;;;;;;;8.18;5.15;;;19.70;99.90;;;;;;2077208;28;20114;-69
2022/06/27 02:41:05;;;;;;;7.05;6.22;;;19.70;99.90;;;;;;2075401;28;20491;-69
2022/06/27 02:42:08;;;;;;;7.22;5.47;;;19.70;99.90;;;;;;2077472;28;20140;-69
2022/06/27 02:43:10;;;;;;;6.57;5.40;;;19.70;99.90;;;;;;2074474;28;20021;-69
2022/06/27 02:44:12;;;;;;;6.72;5.95;;;19.70;99.90;;;;;;2074744;28;20017;-69
2022/06/27 02:45:14;;;;;;;7.00;5.53;;;19.60;99.90;;;;;;2075083;28;20030;-69
2022/06/27 02:46:15;;;;;;;6.25;5.65;;;19.60;99.90;;;;;;2079234;28;20022;-69
2022/06/27 02:47:20;;;;;;;7.00;5.75;;;19.60;99.90;;;;;;2078674;28;20025;-69
2022/06/27 02:48:23;;;;;;;6.28;5.47;;;19.60;99.90;;;;;;2079409;28;20029;-69
2022/06/27 02:49:24;;;;;;;6.45;5.55;;;19.60;99.90;;;;;;2074895;28;20025;-69
2022/06/27 02:50:26;;;;;;;6.25;5.72;;;19.60;99.90;;;;;;2077207;28;20112;-69
2022/06/27 02:51:35;;;;;;;6.30;5.72;;;19.60;99.90;;;;;;2079002;28;20033;-69
2022/06/27 02:52:41;;;;;;;9.02;5.80;;;19.60;99.90;;;;;;2077604;28;20026;-69
2022/06/27 02:54:03;;;;;;;6.00;5.40;;;19.60;99.90;;;;;;2075442;28;20377;-69
2022/06/27 02:55:15;;;;;;;5.85;5.03;;;19.50;99.90;;;;;;2075727;28;20547;-69
2022/06/27 02:56:21;;;;;;;6.97;5.50;;;19.50;99.90;;;;;;2078411;28;20033;-69
2022/06/27 02:57:53;;;;;;;7.25;4.35;;;19.50;99.90;;;;;;2077583;28;20018;-69
2022/06/27 02:59:09;;;;;;;7.25;5.60;;;19.50;99.90;;;;;;2063725;28;20107;-69
2022/06/27 03:00:11;;;;;;;6.10;5.50;;;19.50;99.90;;;;;;2082790;28;20017;-69
2022/06/27 03:01:14;;;;;;;8.55;5.82;;;19.40;99.90;;;;;;2085853;28;20072;-69
2022/06/27 03:02:16;;;;;;;6.03;5.38;;;19.40;99.90;;;;;;2073742;28;20034;-69
2022/06/27 03:03:17;;;;;;;5.68;5.18;;;19.40;99.90;;;;;;2076488;28;20029;-69
2022/06/27 03:04:18;;;;;;;5.80;5.22;;;19.40;99.90;;;;;;2078326;28;20539;-70
2022/06/27 03:05:18;;;;;;;9.18;5.85;;;19.40;99.90;;;;;;2078374;28;20021;-69
2022/06/27 03:06:19;;;;;;;7.13;5.93;;;19.40;99.90;;;;;;2078769;28;20033;-69
2022/06/27 03:07:20;;;;;;;9.18;5.53;;;19.40;99.90;;;;;;2077539;28;20031;-69
2022/06/27 03:08:20;;;;;;;6.38;4.72;;;19.40;99.90;;;;;;2077021;28;20017;-69
2022/06/27 03:09:21;;;;;;;6.35;5.00;;;19.40;99.90;;;;;;2076228;28;20029;-69
2022/06/27 03:10:22;;;;;;;5.75;5.05;;;19.40;99.90;;;;;;2077297;28;20116;-69
2022/06/27 03:11:24;;;;;;;8.73;5.63;;;19.40;99.90;;;;;;2077015;28;20033;-69
2022/06/27 03:12:24;;;;;;;6.32;4.60;;;19.40;99.90;;;;;;2077267;28;20382;-69
2022/06/27 03:13:25;;;;;;;5.75;4.82;;;19.40;99.90;;;;;;2076908;28;20071;-69
2022/06/27 03:14:26;;;;;;;7.93;5.28;;;19.40;99.90;;;;;;2077709;28;20025;-69
2022/06/27 03:15:26;;;;;;;6.57;5.32;;;19.40;99.90;;;;;;2075956;28;20057;-69
2022/06/27 03:16:27;;;;;;;5.65;5.00;;;19.40;99.90;;;;;;2076121;28;20018;-69
2022/06/27 03:17:28;;;;;;;5.38;4.80;;;19.40;99.90;;;;;;2077974;28;20033;-69
2022/06/27 03:18:29;;;;;;;6.95;5.00;;;19.40;99.90;;;;;;2075685;28;20037;-69
2022/06/27 03:19:30;;;;;;;5.95;5.45;;;19.40;99.90;;;;;;2075943;28;20032;-69
2022/06/27 03:20:31;;;;;;;5.60;5.10;;;19.50;99.90;;;;;;2078431;28;20400;-69
2022/06/27 03:21:32;;;;;;;7.43;5.20;;;19.50;99.90;;;;;;2078011;28;20039;-69
2022/06/27 03:22:32;;;;;;;5.90;5.38;;;19.50;99.90;;;;;;2077408;28;20026;-69
2022/06/27 03:23:33;;;;;;;5.72;5.13;;;19.50;99.90;;;;;;2078632;28;20080;-69
2022/06/27 03:24:34;;;;;;;5.15;4.55;;;19.50;99.90;;;;;;2075191;28;20117;-69
2022/06/27 03:25:34;;;;;;;6.38;5.07;;;19.50;99.90;;;;;;2073692;28;20509;-69
2022/06/27 03:26:35;;;;;;;8.43;5.30;;;19.50;99.90;;;;;;2075423;28;20025;-69
2022/06/27 03:27:36;;;;;;;5.63;5.18;;;19.50;99.90;;;;;;2075105;28;20083;-69
2022/06/27 03:28:36;;;;;;;5.57;4.95;;;19.40;99.90;;;;;;2075870;28;20032;-69
2022/06/27 03:29:37;;;;;;;6.70;5.20;;;19.50;99.90;;;;;;2077652;28;20060;-69
2022/06/27 03:30:38;;;;;;;5.30;4.80;;;19.50;99.90;;;;;;2075559;28;20030;-69
2022/06/27 03:31:39;;;;;;;4.88;4.53;;;19.50;99.90;;;;;;2077377;28;20107;-69
2022/06/27 03:32:40;;;;;;;5.15;4.75;;;19.50;99.90;;;;;;2077018;28;20080;-70
2022/06/27 03:33:40;;;;;;;4.90;3.67;;;19.50;99.90;;;;;;2076708;28;20052;-69
2022/06/27 03:34:41;;;;;;;5.43;4.22;;;19.50;99.90;;;;;;2078773;28;20021;-69
2022/06/27 03:35:43;;;;;;;6.25;5.53;;;19.50;99.90;;;;;;2079902;28;20022;-69
2022/06/27 03:36:44;;;;;;;7.65;5.07;;;19.50;99.90;;;;;;2079776;28;20520;-69
2022/06/27 03:37:46;;;;;;;5.90;5.38;;;19.50;99.90;;;;;;2080339;28;20065;-69
2022/06/27 03:38:46;;;;;;;7.82;5.65;;;19.50;99.90;;;;;;2077048;28;20045;-70
2022/06/27 03:39:47;;;;;;;5.70;5.18;;;19.50;99.90;;;;;;2077406;28;20105;-69
2022/06/27 03:40:47;;;;;;;9.52;5.78;;;19.50;99.90;;;;;;2077115;28;20519;-69
2022/06/27 03:41:48;;;;;;;6.00;5.50;;;19.50;99.90;;;;;;2077668;28;20044;-69
2022/06/27 03:42:49;;;;;;;6.30;5.70;;;19.50;99.90;;;;;;2078899;28;20029;-69
2022/06/27 03:43:50;;;;;;;5.97;4.82;;;19.50;99.90;;;;;;2076559;28;20037;-69
2022/06/27 03:44:51;;;;;;;5.90;5.40;;;19.50;99.90;;;;;;2077513;28;20100;-69
2022/06/27 03:45:52;;;;;;;6.15;5.55;;;19.50;99.90;;;;;;2077936;28;20477;-69
2022/06/27 03:46:52;;;;;;;6.38;5.78;;;19.50;99.90;;;;;;2078362;28;20096;-69
2022/06/27 03:47:59;;;;;;;6.97;5.30;;;19.50;99.90;;;;;;2080125;28;20034;-70
2022/06/27 03:50:20;;;;;;;7.60;5.47;;;19.50;99.90;;;;;;2078650;28;20084;-69
2022/06/27 03:51:20;;;;;;;5.88;5.25;;;19.40;99.90;;;;;;2079926;28;20033;-69
2022/06/27 03:52:21;;;;;;;6.35;5.35;;;19.50;99.90;;;;;;2079342;28;20528;-69
2022/06/27 03:53:21;;;;;;;7.03;6.32;;;19.50;99.90;;;;;;2080014;28;20030;-69
2022/06/27 03:54:22;;;;;;;6.22;5.22;;;19.50;99.90;;;;;;2078194;28;20052;-69
2022/06/27 03:55:24;;;;;;;5.55;5.07;;;19.50;99.90;;;;;;2078114;28;20053;-69
2022/06/27 03:56:24;;;;;;;7.93;5.47;;;19.50;99.90;;;;;;2078424;28;20037;-69
2022/06/27 03:57:25;;;;;;;6.20;5.60;;;19.50;99.90;;;;;;2079742;28;20535;-69
2022/06/27 03:58:26;;;;;;;5.82;5.30;;;19.50;99.90;;;;;;2077057;28;20520;-69
2022/06/27 03:59:26;;;;;;;6.45;5.47;;;19.50;99.90;;;;;;2077490;28;20026;-69
2022/06/27 04:00:32;;;;;;;6.25;5.43;;;19.50;99.90;;;;;;2079901;28;20029;-69
2022/06/27 04:01:33;;;;;;;8.70;5.53;;;19.50;99.90;;;;;;2078479;28;20036;-69
2022/06/27 04:02:35;;;;;;;5.68;5.10;;;19.60;99.90;;;;;;2079113;28;20030;-69
2022/06/27 04:03:36;;;;;;;7.95;6.20;;;19.60;99.90;;;;;;2080069;28;20491;-69
2022/06/27 04:04:36;;;;;;;5.63;5.13;;;19.60;99.90;;;;;;2079298;28;20404;-69
2022/06/27 04:05:37;;;;;;;6.05;5.57;;;19.50;99.90;;;;;;2079282;28;20028;-69
2022/06/27 04:06:39;;;;;;;5.45;4.95;;;19.60;99.90;;;;;;2080159;28;20101;-69
2022/06/27 04:07:40;;;;;;;5.25;4.75;;;19.60;99.90;;;;;;2080032;28;20098;-69
2022/06/27 04:08:40;;;;;;;7.30;5.45;;;19.60;99.90;;;;;;2072510;28;20026;-69
2022/06/27 04:09:41;;;;;;;6.00;5.50;;;19.60;99.90;;;;;;2072908;28;20030;-69
2022/06/27 04:10:42;;;;;;;6.38;5.38;;;19.60;99.90;;;;;;2078449;28;20033;-69
2022/06/27 04:11:42;;;;;;;7.60;5.88;;;19.60;99.90;;;;;;2080333;28;20132;-69
2022/06/27 04:12:43;;;;;;;11.10;5.35;;;19.60;99.90;;;;;;2077342;28;20022;-69
2022/06/27 04:13:43;;;;;;;5.53;5.03;;;19.70;99.90;;;;;;2075784;28;20032;-69
2022/06/27 04:14:44;;;;;;;6.72;5.22;;;19.70;99.90;;;;;;2079468;28;20107;-69
2022/06/27 04:15:44;;;;;;;7.68;5.60;;;19.70;99.90;;;;;;2078351;28;20061;-69
2022/06/27 04:16:45;;;;;;;6.60;5.93;;;19.70;99.90;;;;;;2078919;28;20022;-69
2022/06/27 04:17:46;;;;;;;8.07;5.97;;;19.70;99.90;;;;;;2077490;28;20024;-69
2022/06/27 04:18:46;;;;;;;6.45;5.95;;;19.70;99.90;;;;;;2078403;28;20048;-69
2022/06/27 04:19:47;;;;;;;7.88;5.78;;;19.70;99.90;;;;;;2078092;28;20022;-69
2022/06/27 04:20:47;;;;;;;9.93;6.25;;;19.70;99.90;;;;;;2076373;28;20072;-70
2022/06/27 04:21:48;;;;;;;6.18;5.57;;;19.70;99.90;;;;;;2077700;28;20079;-69
2022/06/27 04:22:49;;;;;;;7.57;6.30;;;19.70;99.90;;;;;;2080272;28;20021;-69
2022/06/27 04:23:49;;;;;;;7.47;6.30;;;19.70;99.90;;;;;;2077060;28;20026;-69
2022/06/27 04:24:51;;;;;;;6.30;5.70;;;19.70;99.90;;;;;;2079852;28;20017;-70
2022/06/27 04:25:52;;;;;;;6.63;6.00;;;19.70;99.90;;;;;;2075304;28;20026;-69
2022/06/27 04:26:52;;;;;;;5.40;4.72;;;19.70;99.90;;;;;;2077100;28;20021;-69
2022/06/27 04:27:53;;;;;;;6.45;5.88;;;19.70;99.90;;;;;;2077853;28;20040;-69
2022/06/27 04:28:54;;;;;;;7.22;5.90;;;19.70;99.90;;;;;;2077622;28;20057;-69
2022/06/27 04:31:52;;;;;;;6.40;5.80;;;19.70;99.90;;;;;;2073659;28;20040;-69
2022/06/27 04:32:52;;;;;;;6.68;6.13;;;19.60;99.90;;;;;;2074130;28;20030;-69
2022/06/27 04:33:53;;;;;;;7.03;6.32;;;19.60;99.90;;;;;;2079823;28;20100;-69
2022/06/27 04:34:54;;;;;;;7.00;6.10;;;19.60;99.90;;;;;;2077668;28;20466;-69
2022/06/27 04:35:55;;;;;;;6.50;5.90;;;19.60;99.90;;;;;;2076589;28;20026;-69
2022/06/27 04:36:55;;;;;;;6.90;6.30;;;19.60;99.90;;;;;;2081065;28;20041;-69
2022/06/27 04:37:56;;;;;;;7.00;6.32;;;19.60;99.90;;;;;;2081137;28;20488;-69
2022/06/27 04:38:58;;;;;;;6.88;6.28;;;19.60;99.90;;;;;;2076941;28;20021;-69
2022/06/27 04:39:58;;;;;;;7.55;6.82;;;19.60;99.90;;;;;;2079978;28;20088;-69
2022/06/27 04:40:59;;;;;;;7.60;6.63;;;19.60;99.90;;;;;;2080053;28;20025;-69
2022/06/27 04:42:00;;;;;;;6.90;5.20;;;19.60;99.90;;;;;;2079999;28;20087;-69
2022/06/27 04:43:00;;;;;;;5.60;5.10;;;19.60;99.90;;;;;;2077015;28;20105;-69
2022/06/27 04:44:01;;;;;;;6.63;5.93;;;19.60;99.90;;;;;;2078221;28;20052;-69
2022/06/27 04:45:03;;;;;;;7.03;6.32;;;19.60;99.90;;;;;;2077089;28;20025;-69
2022/06/27 04:46:05;;;;;;;6.53;6.03;;;19.60;99.90;;;;;;2075907;28;20071;-69
2022/06/27 04:47:07;;;;;;;6.40;5.85;;;19.60;99.90;;;;;;2074713;28;20112;-69
2022/06/27 04:48:10;;;;;;;6.82;5.60;;;19.60;99.90;;;;;;2076665;28;20017;-69
2022/06/27 04:49:12;;;;;;;6.45;5.68;;;19.60;99.90;;;;;;2077412;28;20034;-69
2022/06/27 04:50:18;;;;;;;7.32;6.22;;;19.60;99.90;;;;;;2069723;28;20080;-69
2022/06/27 04:51:19;;;;;;;6.97;6.35;;;19.60;99.90;;;;;;2066518;28;20033;-69
2022/06/27 04:52:20;;;;;;;6.75;6.25;;;19.70;99.90;;;;;;2075842;28;20025;-69
2022/06/27 04:53:21;;;;;;;7.88;7.07;;;19.70;99.90;;;;;;2077584;28;20032;-69
2022/06/27 04:54:22;;;;;;;8.70;7.88;;;19.70;99.90;;;;;;2076594;28;20030;-69
2022/06/27 04:55:22;;;;;;;8.35;7.55;;;19.70;99.90;;;;;;2074859;28;20017;-69
2022/06/27 04:56:23;;;;;;;6.38;5.70;;;19.70;99.90;;;;;;2075466;28;20026;-69
2022/06/27 04:57:24;;;;;;;5.85;5.20;;;19.70;99.90;;;;;;2077038;28;20080;-69
2022/06/27 04:58:24;;;;;;;6.47;5.88;;;19.70;99.90;;;;;;2066484;28;20025;-69
2022/06/27 04:59:25;;;;;;;7.57;6.80;;;19.70;99.90;;;;;;2067204;28;20033;-69
2022/06/27 05:00:26;;;;;;;7.93;6.72;;;19.70;99.90;;;;;;2085195;28;20116;-69
2022/06/27 05:01:27;;;;;;;9.23;7.90;;;19.70;99.90;;;;;;2082526;28;20029;-69
2022/06/27 05:02:28;;;;;;;8.23;7.53;;;19.70;99.90;;;;;;2075717;28;20029;-69
2022/06/27 05:03:29;;;;;;;8.55;7.88;;;19.70;99.90;;;;;;2075263;28;20397;-69
2022/06/27 05:04:30;;;;;;;8.40;7.72;;;19.70;99.90;;;;;;2077358;28;20040;-69
2022/06/27 05:05:30;;;;;;;7.20;5.97;;;19.70;99.90;;;;;;2075555;28;20452;-69
2022/06/27 05:06:31;;;;;;;7.80;7.10;;;19.70;99.90;;;;;;2076380;28;20018;-69
2022/06/27 05:07:32;;;;;;;8.13;7.30;;;19.70;99.90;;;;;;2075765;28;20101;-69
2022/06/27 05:08:33;;;;;;;8.50;7.18;;;19.70;99.90;;;;;;2075809;28;20026;-69
2022/06/27 05:09:33;;;;;;;8.50;7.72;;;19.70;99.90;;;;;;2075946;28;20103;-69
2022/06/27 05:10:34;;;;;;;8.98;7.72;;;19.70;99.90;;;;;;2076539;28;20030;-69
2022/06/27 05:11:35;;;;;;;8.30;7.40;;;19.70;99.90;;;;;;2074430;28;20480;-69
2022/06/27 05:12:35;;;;;;;8.60;7.80;;;19.70;99.90;;;;;;2075382;28;20505;-69
2022/06/27 05:13:36;;;;;;;8.45;7.68;;;19.70;99.90;;;;;;2074820;28;20033;-69
2022/06/27 05:14:37;;;;;;;9.52;8.57;;;19.70;99.90;;;;;;2076963;28;20022;-69
2022/06/27 05:15:37;;;;;;;9.02;8.07;;;19.80;99.90;;;;;;2074401;28;20034;-69
2022/06/27 05:16:38;;;;;;;7.70;6.90;;;19.70;99.90;;;;;;2078611;28;20025;-69
2022/06/27 05:17:39;;;;;;;8.80;7.97;;;19.70;99.90;;;;;;2077194;28;20025;-69
2022/06/27 05:18:40;;;;;;;9.20;8.40;;;19.70;99.90;;;;;;2076611;28;20033;-69
2022/06/27 05:19:40;;;;;;;9.00;8.05;;;19.70;99.90;;;;;;2074963;28;20021;-69
2022/06/27 05:20:42;;;;;;;9.50;8.30;;;19.70;99.90;;;;;;2075059;28;20481;-69
2022/06/27 05:21:44;;;;;;;8.82;7.70;;;19.70;99.90;;;;;;2076514;28;20064;-69
2022/06/27 05:22:44;;;;;;;8.65;7.88;;;19.70;99.90;;;;;;2077999;28;20123;-69
2022/06/27 05:23:45;;;;;;;8.90;8.10;;;19.70;99.90;;;;;;2076791;28;20083;-69
2022/06/27 05:24:48;;;;;;;8.95;8.20;;;19.70;99.90;;;;;;2066618;28;20030;-69